createdAt,value
2022-08-26T00:00:16.365Z,95350
2022-08-26T00:01:29.243Z,95350
2022-08-26T00:02:34.792Z,95344
2022-08-26T00:03:44.492Z,95341
2022-08-26T00:04:53.208Z,95343
2022-08-26T00:06:01.916Z,95340
2022-08-26T00:07:11.654Z,95339
2022-08-26T00:08:21.346Z,95335
2022-08-26T00:09:30.042Z,95337
2022-08-26T00:10:39.746Z,95336
2022-08-26T00:11:49.469Z,95334
2022-08-26T00:12:59.197Z,95332
2022-08-26T00:14:07.854Z,95334
2022-08-26T00:15:16.506Z,95332
2022-08-26T00:16:27.223Z,95335
2022-08-26T00:17:35.822Z,95336
2022-08-26T00:18:44.495Z,95333
2022-08-26T00:19:53.141Z,95334
2022-08-26T00:21:01.861Z,95333
2022-08-26T00:22:11.596Z,95335
2022-08-26T00:23:24.169Z,95336
2022-08-26T00:24:30.876Z,95334
2022-08-26T00:25:42.521Z,95339
2022-08-26T00:26:51.544Z,95336
2022-08-26T00:27:59.832Z,95336
2022-08-26T00:29:10.469Z,95340
2022-08-26T00:30:22.801Z,95335
2022-08-26T00:31:31.087Z,95338
2022-08-26T00:32:40.405Z,95338
2022-08-26T00:33:50.031Z,95338
2022-08-26T00:34:59.694Z,95335
2022-08-26T00:36:08.586Z,95333
2022-08-26T00:37:18.217Z,95334
2022-08-26T00:38:27.872Z,95336
2022-08-26T00:39:36.512Z,95337
2022-08-26T00:40:47.178Z,95335
2022-08-26T00:41:54.842Z,95332
2022-08-26T00:43:07.001Z,95334
2022-08-26T00:44:14.140Z,95333
2022-08-26T00:45:21.822Z,95334
2022-08-26T00:46:30.484Z,95336
2022-08-26T00:47:40.191Z,95335
2022-08-26T00:48:49.317Z,95331
2022-08-26T00:49:58.571Z,95329
2022-08-26T00:51:07.243Z,95330
2022-08-26T00:52:15.879Z,95336
2022-08-26T00:53:25.886Z,95335
2022-08-26T00:54:33.240Z,95337
2022-08-26T00:55:43.884Z,95335
2022-08-26T00:56:52.530Z,95327
2022-08-26T00:58:02.167Z,95333
2022-08-26T00:59:11.893Z,95328
2022-08-26T01:00:20.551Z,95330
2022-08-26T01:01:30.719Z,95330
2022-08-26T01:02:40.956Z,95335
2022-08-26T01:03:50.513Z,95330
2022-08-26T01:04:59.206Z,95332
2022-08-26T01:06:11.507Z,95335
2022-08-26T01:07:18.523Z,95328
2022-08-26T01:08:28.157Z,95330
2022-08-26T01:09:35.824Z,95330
2022-08-26T01:10:44.480Z,95329
2022-08-26T01:11:54.133Z,95330
2022-08-26T01:13:02.848Z,95330
2022-08-26T01:14:12.517Z,95334
2022-08-26T01:15:23.191Z,95332
2022-08-26T01:16:34.037Z,95332
2022-08-26T01:17:44.635Z,95331
2022-08-26T01:18:55.310Z,95331
2022-08-26T01:20:06.096Z,95330
2022-08-26T01:21:16.686Z,95331
2022-08-26T01:22:28.307Z,95334
2022-08-26T01:23:36.064Z,95332
2022-08-26T01:24:45.702Z,95331
2022-08-26T01:25:54.345Z,95334
2022-08-26T01:27:04.033Z,95331
2022-08-26T01:28:11.719Z,95329
2022-08-26T01:29:20.365Z,95332
2022-08-26T01:30:30.049Z,95334
2022-08-26T01:31:39.042Z,95331
2022-08-26T01:32:47.405Z,95336
2022-08-26T01:33:56.120Z,95331
2022-08-26T01:35:05.787Z,95338
2022-08-26T01:36:15.477Z,95332
2022-08-26T01:37:24.220Z,95336
2022-08-26T01:38:33.916Z,95337
2022-08-26T01:39:42.633Z,95334
2022-08-26T01:40:52.316Z,95336
2022-08-26T01:42:02.929Z,95337
2022-08-26T01:43:12.648Z,95336
2022-08-26T01:44:22.357Z,95337
2022-08-26T01:45:31.123Z,95336
2022-08-26T01:46:40.843Z,95335
2022-08-26T01:47:56.949Z,95332
2022-08-26T01:49:00.257Z,95331
2022-08-26T01:50:09.947Z,95335
2022-08-26T01:51:20.714Z,95336
2022-08-26T01:52:29.400Z,95334
2022-08-26T01:53:38.110Z,95335
2022-08-26T01:54:50.440Z,95337
2022-08-26T01:55:57.535Z,95336
2022-08-26T01:57:07.283Z,95338
2022-08-26T01:58:16.964Z,95338
2022-08-26T01:59:25.663Z,95340
2022-08-26T02:00:35.468Z,95338
2022-08-26T02:01:43.004Z,95338
2022-08-26T02:02:52.721Z,95338
2022-08-26T02:04:01.383Z,95339
2022-08-26T02:05:11.076Z,95338
2022-08-26T02:06:20.785Z,95330
2022-08-26T02:07:29.485Z,95331
2022-08-26T02:08:39.199Z,95329
2022-08-26T02:09:48.888Z,95331
2022-08-26T02:10:57.553Z,95331
2022-08-26T02:12:07.262Z,95329
2022-08-26T02:13:16.927Z,95329
2022-08-26T02:14:26.812Z,95329
2022-08-26T02:15:35.289Z,95331
2022-08-26T02:16:43.005Z,95331
2022-08-26T02:17:52.880Z,95329
2022-08-26T02:19:02.275Z,95331
2022-08-26T02:20:13.076Z,95333
2022-08-26T02:21:21.580Z,95330
2022-08-26T02:22:31.245Z,95330
2022-08-26T02:23:39.918Z,95328
2022-08-26T02:24:49.574Z,95327
2022-08-26T02:25:58.247Z,95333
2022-08-26T02:27:06.920Z,95331
2022-08-26T02:28:17.580Z,95328
2022-08-26T02:29:27.230Z,95323
2022-08-26T02:30:36.889Z,95326
2022-08-26T02:31:46.593Z,95332
2022-08-26T02:32:56.216Z,95332
2022-08-26T02:34:05.891Z,95331
2022-08-26T02:35:18.281Z,95336
2022-08-26T02:36:23.172Z,95335
2022-08-26T02:37:32.868Z,95332
2022-08-26T02:38:43.129Z,95332
2022-08-26T02:39:51.164Z,95330
2022-08-26T02:41:00.780Z,95336
2022-08-26T02:42:10.425Z,95333
2022-08-26T02:43:23.907Z,95331
2022-08-26T02:44:30.853Z,95330
2022-08-26T02:45:40.511Z,95333
2022-08-26T02:46:49.208Z,95331
2022-08-26T02:47:59.665Z,95331
2022-08-26T02:49:07.515Z,95331
2022-08-26T02:50:17.199Z,95324
2022-08-26T02:51:25.852Z,95325
2022-08-26T02:52:36.504Z,95331
2022-08-26T02:53:45.163Z,95324
2022-08-26T02:54:53.950Z,95326
2022-08-26T02:56:03.617Z,95323
2022-08-26T02:57:12.271Z,95325
2022-08-26T02:58:21.922Z,95323
2022-08-26T02:59:30.569Z,95323
2022-08-26T03:00:53.200Z,95319
2022-08-26T03:01:50.908Z,95316
2022-08-26T03:03:00.513Z,95317
2022-08-26T03:04:10.177Z,95320
2022-08-26T03:05:19.832Z,95321
2022-08-26T03:06:29.540Z,95322
2022-08-26T03:07:40.185Z,95318
2022-08-26T03:08:48.854Z,95321
2022-08-26T03:09:58.544Z,95319
2022-08-26T03:11:09.205Z,95316
2022-08-26T03:12:18.911Z,95316
2022-08-26T03:13:27.567Z,95314
2022-08-26T03:14:37.232Z,95313
2022-08-26T03:15:45.967Z,95312
2022-08-26T03:16:53.574Z,95312
2022-08-26T03:18:02.371Z,95310
2022-08-26T03:19:11.015Z,95310
2022-08-26T03:20:20.675Z,95315
2022-08-26T03:21:29.366Z,95313
2022-08-26T03:22:39.011Z,95310
2022-08-26T03:23:48.722Z,95314
2022-08-26T03:24:57.399Z,95311
2022-08-26T03:26:06.048Z,95311
2022-08-26T03:27:14.691Z,95311
2022-08-26T03:28:23.342Z,95315
2022-08-26T03:29:33.065Z,95313
2022-08-26T03:30:44.177Z,95313
2022-08-26T03:31:51.332Z,95311
2022-08-26T03:33:00.971Z,95313
2022-08-26T03:34:08.631Z,95317
2022-08-26T03:35:18.361Z,95310
2022-08-26T03:36:28.004Z,95311
2022-08-26T03:37:36.671Z,95313
2022-08-26T03:38:46.302Z,95312
2022-08-26T03:39:55.019Z,95308
2022-08-26T03:41:04.680Z,95311
2022-08-26T03:42:14.332Z,95311
2022-08-26T03:43:22.973Z,95309
2022-08-26T03:44:32.622Z,95312
2022-08-26T03:45:41.279Z,95310
2022-08-26T03:46:50.117Z,95312
2022-08-26T03:47:59.738Z,95311
2022-08-26T03:49:09.413Z,95307
2022-08-26T03:50:22.753Z,95310
2022-08-26T03:51:28.761Z,95311
2022-08-26T03:52:43.163Z,95311
2022-08-26T03:53:49.067Z,95307
2022-08-26T03:54:56.719Z,95308
2022-08-26T03:56:05.394Z,95304
2022-08-26T03:57:15.057Z,95302
2022-08-26T03:58:24.778Z,95305
2022-08-26T03:59:34.445Z,95302
2022-08-26T04:00:44.165Z,95306
2022-08-26T04:01:52.816Z,95309
2022-08-26T04:03:02.534Z,95308
2022-08-26T04:04:12.364Z,95306
2022-08-26T04:05:21.780Z,95304
2022-08-26T04:06:31.423Z,95304
2022-08-26T04:07:40.067Z,95307
2022-08-26T04:08:50.728Z,95308
2022-08-26T04:09:58.406Z,95308
2022-08-26T04:11:07.102Z,95305
2022-08-26T04:12:16.779Z,95307
2022-08-26T04:13:25.443Z,95302
2022-08-26T04:14:34.120Z,95305
2022-08-26T04:15:42.864Z,95300
2022-08-26T04:16:52.573Z,95306
2022-08-26T04:18:02.321Z,95300
2022-08-26T04:19:11.035Z,95304
2022-08-26T04:20:19.741Z,95305
2022-08-26T04:21:29.486Z,95300
2022-08-26T04:22:39.291Z,95304
2022-08-26T04:23:49.076Z,95302
2022-08-26T04:24:57.753Z,95299
2022-08-26T04:26:07.445Z,95301
2022-08-26T04:27:17.184Z,95300
2022-08-26T04:28:27.889Z,95303
2022-08-26T04:29:36.636Z,95299
2022-08-26T04:30:46.317Z,95302
2022-08-26T04:31:55.290Z,95299
2022-08-26T04:33:03.756Z,95301
2022-08-26T04:34:14.408Z,95298
2022-08-26T04:35:26.078Z,95299
2022-08-26T04:36:33.782Z,95299
2022-08-26T04:37:44.461Z,95301
2022-08-26T04:38:54.175Z,95295
2022-08-26T04:40:03.892Z,95296
2022-08-26T04:41:15.169Z,95297
2022-08-26T04:42:23.337Z,95300
2022-08-26T04:43:31.878Z,95296
2022-08-26T04:44:41.570Z,95299
2022-08-26T04:45:51.259Z,95301
2022-08-26T04:47:00.985Z,95302
2022-08-26T04:48:11.123Z,95298
2022-08-26T04:49:21.398Z,95300
2022-08-26T04:50:30.253Z,95299
2022-08-26T04:51:38.953Z,95300
2022-08-26T04:52:47.672Z,95299
2022-08-26T04:53:56.373Z,95302
2022-08-26T04:55:08.344Z,95300
2022-08-26T04:56:16.733Z,95302
2022-08-26T04:57:26.442Z,95306
2022-08-26T04:58:36.141Z,95307
2022-08-26T04:59:45.863Z,95305
2022-08-26T05:00:54.520Z,95302
2022-08-26T05:02:03.438Z,95306
2022-08-26T05:03:13.096Z,95307
2022-08-26T05:04:22.842Z,95307
2022-08-26T05:05:31.501Z,95310
2022-08-26T05:06:41.200Z,95317
2022-08-26T05:07:50.933Z,95315
2022-08-26T05:08:58.586Z,95318
2022-08-26T05:10:08.845Z,95317
2022-08-26T05:11:17.963Z,95320
2022-08-26T05:12:27.682Z,95320
2022-08-26T05:13:37.406Z,95318
2022-08-26T05:14:45.119Z,95324
2022-08-26T05:15:59.133Z,95325
2022-08-26T05:17:05.452Z,95333
2022-08-26T05:18:16.101Z,95331
2022-08-26T05:19:24.788Z,95328
2022-08-26T05:20:35.435Z,95335
2022-08-26T05:21:45.076Z,95343
2022-08-26T05:22:54.753Z,95341
2022-08-26T05:24:02.407Z,95340
2022-08-26T05:25:11.084Z,95339
2022-08-26T05:26:23.010Z,95342
2022-08-26T05:27:30.420Z,95339
2022-08-26T05:28:39.086Z,95340
2022-08-26T05:29:47.747Z,95338
2022-08-26T05:30:57.454Z,95338
2022-08-26T05:32:07.081Z,95336
2022-08-26T05:33:15.730Z,95333
2022-08-26T05:34:25.721Z,95333
2022-08-26T05:35:35.037Z,95328
2022-08-26T05:36:43.749Z,95333
2022-08-26T05:37:53.390Z,95333
2022-08-26T05:39:02.063Z,95336
2022-08-26T05:40:11.788Z,95337
2022-08-26T05:41:21.375Z,95336
2022-08-26T05:42:30.068Z,95334
2022-08-26T05:43:39.786Z,95337
2022-08-26T05:44:54.174Z,95338
2022-08-26T05:45:59.117Z,95337
2022-08-26T05:47:08.813Z,95337
2022-08-26T05:48:17.452Z,95337
2022-08-26T05:49:27.104Z,95340
2022-08-26T05:50:35.781Z,95340
2022-08-26T05:51:44.425Z,95341
2022-08-26T05:52:54.090Z,95341
2022-08-26T05:54:03.587Z,95339
2022-08-26T05:55:12.517Z,95340
2022-08-26T05:56:22.195Z,95341
2022-08-26T05:57:29.851Z,95341
2022-08-26T05:58:39.507Z,95341
2022-08-26T05:59:49.221Z,95343
2022-08-26T06:00:57.878Z,95341
2022-08-26T06:02:07.547Z,95344
2022-08-26T06:03:16.254Z,95337
2022-08-26T06:04:27.092Z,95341
2022-08-26T06:05:38.358Z,95341
2022-08-26T06:06:45.202Z,95345
2022-08-26T06:07:54.884Z,95346
2022-08-26T06:09:03.541Z,95348
2022-08-26T06:10:31.403Z,95349
2022-08-26T06:11:23.877Z,95352
2022-08-26T06:12:31.536Z,95348
2022-08-26T06:13:41.247Z,95344
2022-08-26T06:14:50.929Z,95344
2022-08-26T06:15:58.602Z,95347
2022-08-26T06:17:06.265Z,95342
2022-08-26T06:18:15.936Z,95342
2022-08-26T06:19:25.605Z,95346
2022-08-26T06:20:36.232Z,95345
2022-08-26T06:21:44.887Z,95346
2022-08-26T06:22:54.541Z,95343
2022-08-26T06:24:04.228Z,95343
2022-08-26T06:25:12.886Z,95343
2022-08-26T06:26:21.565Z,95344
2022-08-26T06:27:32.631Z,95344
2022-08-26T06:28:39.913Z,95346
2022-08-26T06:29:49.560Z,95348
2022-08-26T06:30:58.301Z,95349
2022-08-26T06:32:06.945Z,95347
2022-08-26T06:33:16.569Z,95347
2022-08-26T06:34:26.565Z,95342
2022-08-26T06:35:32.922Z,95343
2022-08-26T06:36:41.600Z,95346
2022-08-26T06:37:50.267Z,95351
2022-08-26T06:38:59.959Z,95347
2022-08-26T06:40:07.734Z,95342
2022-08-26T06:41:16.313Z,95344
2022-08-26T06:42:25.970Z,95345
2022-08-26T06:43:33.603Z,95346
2022-08-26T06:44:44.636Z,95339
2022-08-26T06:45:53.069Z,95345
2022-08-26T06:47:02.720Z,95348
2022-08-26T06:48:12.394Z,95342
2022-08-26T06:49:25.682Z,95343
2022-08-26T06:50:30.721Z,95342
2022-08-26T06:51:40.403Z,95340
2022-08-26T06:52:48.064Z,95345
2022-08-26T06:53:58.705Z,95342
2022-08-26T06:55:07.388Z,95343
2022-08-26T06:56:16.067Z,95346
2022-08-26T06:57:24.853Z,95351
2022-08-26T06:58:33.491Z,95354
2022-08-26T06:59:42.166Z,95347
2022-08-26T07:00:52.823Z,95350
2022-08-26T07:02:03.508Z,95351
2022-08-26T07:03:14.211Z,95349
2022-08-26T07:04:23.017Z,95346
2022-08-26T07:05:32.469Z,95348
2022-08-26T07:06:41.144Z,95350
2022-08-26T07:07:50.827Z,95350
2022-08-26T07:09:00.679Z,95354
2022-08-26T07:10:11.418Z,95355
2022-08-26T07:11:20.110Z,95356
2022-08-26T07:12:30.798Z,95356
2022-08-26T07:13:39.486Z,95354
2022-08-26T07:14:49.217Z,95359
2022-08-26T07:16:02.984Z,95356
2022-08-26T07:17:13.408Z,95356
2022-08-26T07:18:18.288Z,95365
2022-08-26T07:19:30.678Z,95356
2022-08-26T07:20:37.668Z,95361
2022-08-26T07:21:46.409Z,95362
2022-08-26T07:22:57.074Z,95358
2022-08-26T07:24:06.808Z,95359
2022-08-26T07:25:16.471Z,95359
2022-08-26T07:26:26.188Z,95359
2022-08-26T07:27:34.906Z,95357
2022-08-26T07:28:44.627Z,95359
2022-08-26T07:29:52.369Z,95357
2022-08-26T07:31:02.119Z,95364
2022-08-26T07:32:11.782Z,95361
2022-08-26T07:33:21.429Z,95362
2022-08-26T07:34:30.118Z,95355
2022-08-26T07:35:39.844Z,95356
2022-08-26T07:36:48.508Z,95363
2022-08-26T07:37:57.126Z,95359
2022-08-26T07:39:04.925Z,95361
2022-08-26T07:40:14.677Z,95360
2022-08-26T07:41:23.256Z,95360
2022-08-26T07:42:31.924Z,95358
2022-08-26T07:43:40.609Z,95363
2022-08-26T07:44:49.302Z,95367
2022-08-26T07:45:58.971Z,95366
2022-08-26T07:47:10.275Z,95366
2022-08-26T07:48:16.272Z,95364
2022-08-26T07:49:25.995Z,95365
2022-08-26T07:50:34.226Z,95362
2022-08-26T07:51:44.261Z,95360
2022-08-26T07:52:53.942Z,95359
2022-08-26T07:54:03.668Z,95362
2022-08-26T07:55:14.392Z,95359
2022-08-26T07:56:22.056Z,95365
2022-08-26T07:57:30.728Z,95363
2022-08-26T07:58:41.441Z,95366
2022-08-26T07:59:52.141Z,95366
2022-08-26T08:01:02.064Z,95366
2022-08-26T08:02:11.723Z,95365
2022-08-26T08:03:20.443Z,95371
2022-08-26T08:04:30.193Z,95369
2022-08-26T08:05:41.215Z,95369
2022-08-26T08:06:49.763Z,95367
2022-08-26T08:08:00.827Z,95369
2022-08-26T08:09:10.191Z,95368
2022-08-26T08:10:18.997Z,95372
2022-08-26T08:11:29.627Z,95370
2022-08-26T08:12:39.558Z,95367
2022-08-26T08:13:49.416Z,95366
2022-08-26T08:14:59.148Z,95365
2022-08-26T08:16:07.881Z,95364
2022-08-26T08:17:17.607Z,95363
2022-08-26T08:18:26.782Z,95363
2022-08-26T08:19:36.611Z,95360
2022-08-26T08:20:54.615Z,95360
2022-08-26T08:21:57.107Z,95356
2022-08-26T08:23:05.812Z,95358
2022-08-26T08:24:14.472Z,95361
2022-08-26T08:25:23.177Z,95361
2022-08-26T08:26:32.886Z,95357
2022-08-26T08:27:40.616Z,95361
2022-08-26T08:28:49.337Z,95362
2022-08-26T08:29:59.131Z,95362
2022-08-26T08:31:08.889Z,95364
2022-08-26T08:32:18.559Z,95363
2022-08-26T08:33:26.250Z,95363
2022-08-26T08:34:35.009Z,95366
2022-08-26T08:35:45.742Z,95363
2022-08-26T08:36:55.483Z,95362
2022-08-26T08:38:06.216Z,95362
2022-08-26T08:39:14.903Z,95365
2022-08-26T08:40:24.663Z,95365
2022-08-26T08:41:34.385Z,95364
2022-08-26T08:42:42.112Z,95365
2022-08-26T08:43:51.841Z,95363
2022-08-26T08:45:01.524Z,95368
2022-08-26T08:46:10.420Z,95369
2022-08-26T08:47:19.181Z,95362
2022-08-26T08:48:28.843Z,95365
2022-08-26T08:49:38.602Z,95361
2022-08-26T08:50:48.361Z,95370
2022-08-26T08:51:57.128Z,95363
2022-08-26T08:53:08.850Z,95364
2022-08-26T08:54:17.584Z,95361
2022-08-26T08:55:26.286Z,95363
2022-08-26T08:56:37.109Z,95365
2022-08-26T08:57:47.832Z,95365
2022-08-26T08:58:57.588Z,95360
2022-08-26T09:00:06.337Z,95362
2022-08-26T09:01:14.169Z,95363
2022-08-26T09:02:22.891Z,95364
2022-08-26T09:03:32.565Z,95366
2022-08-26T09:04:41.246Z,95363
2022-08-26T09:05:49.920Z,95362
2022-08-26T09:06:59.644Z,95362
2022-08-26T09:08:08.431Z,95362
2022-08-26T09:09:17.945Z,95362
2022-08-26T09:10:25.704Z,95361
2022-08-26T09:11:35.465Z,95365
2022-08-26T09:12:45.173Z,95363
2022-08-26T09:13:52.863Z,95361
2022-08-26T09:15:02.568Z,95360
2022-08-26T09:16:11.274Z,95363
2022-08-26T09:17:20.981Z,95367
2022-08-26T09:18:30.678Z,95367
2022-08-26T09:19:39.385Z,95363
2022-08-26T09:20:48.138Z,95364
2022-08-26T09:21:57.914Z,95368
2022-08-26T09:23:08.773Z,95369
2022-08-26T09:24:19.403Z,95368
2022-08-26T09:25:30.004Z,95369
2022-08-26T09:26:38.723Z,95368
2022-08-26T09:27:50.374Z,95361
2022-08-26T09:28:57.120Z,95363
2022-08-26T09:30:05.841Z,95361
2022-08-26T09:31:15.557Z,95360
2022-08-26T09:32:22.271Z,95360
2022-08-26T09:33:32.132Z,95360
2022-08-26T09:34:40.820Z,95364
2022-08-26T09:35:50.599Z,95356
2022-08-26T09:37:00.323Z,95354
2022-08-26T09:38:10.415Z,95356
2022-08-26T09:39:19.859Z,95357
2022-08-26T09:40:28.576Z,95360
2022-08-26T09:41:37.335Z,95357
2022-08-26T09:42:47.091Z,95358
2022-08-26T09:43:54.727Z,95358
2022-08-26T09:45:03.408Z,95353
2022-08-26T09:46:13.122Z,95349
2022-08-26T09:47:22.779Z,95354
2022-08-26T09:48:32.447Z,95351
2022-08-26T09:49:43.116Z,95353
2022-08-26T09:50:52.814Z,95346
2022-08-26T09:52:02.512Z,95346
2022-08-26T09:53:12.737Z,95349
2022-08-26T09:54:22.858Z,95348
2022-08-26T09:55:33.493Z,95346
2022-08-26T09:56:42.204Z,95346
2022-08-26T09:57:51.930Z,95341
2022-08-26T09:59:02.602Z,95339
2022-08-26T10:00:12.238Z,95339
2022-08-26T10:01:21.941Z,95338
2022-08-26T10:02:31.617Z,95342
2022-08-26T10:03:40.329Z,95340
2022-08-26T10:04:50.007Z,95340
2022-08-26T10:05:59.727Z,95337
2022-08-26T10:07:09.411Z,95331
2022-08-26T10:08:18.093Z,95323
2022-08-26T10:09:26.756Z,95328
2022-08-26T10:10:36.414Z,95328
2022-08-26T10:11:47.235Z,95326
2022-08-26T10:12:55.747Z,95327
2022-08-26T10:14:03.445Z,95321
2022-08-26T10:15:12.100Z,95320
2022-08-26T10:16:21.777Z,95317
2022-08-26T10:17:31.414Z,95314
2022-08-26T10:18:41.119Z,95316
2022-08-26T10:19:56.315Z,95311
2022-08-26T10:21:01.537Z,95310
2022-08-26T10:22:10.216Z,95307
2022-08-26T10:23:18.872Z,95311
2022-08-26T10:24:28.546Z,95305
2022-08-26T10:25:37.244Z,95305
2022-08-26T10:26:44.884Z,95306
2022-08-26T10:27:54.526Z,95301
2022-08-26T10:29:04.213Z,95303
2022-08-26T10:30:12.872Z,95299
2022-08-26T10:31:22.993Z,95297
2022-08-26T10:32:32.299Z,95302
2022-08-26T10:33:41.885Z,95295
2022-08-26T10:34:51.547Z,95298
2022-08-26T10:36:01.242Z,95292
2022-08-26T10:37:15.103Z,95293
2022-08-26T10:38:20.562Z,95291
2022-08-26T10:39:29.210Z,95292
2022-08-26T10:40:38.033Z,95291
2022-08-26T10:41:46.655Z,95288
2022-08-26T10:42:55.406Z,95286
2022-08-26T10:44:06.063Z,95286
2022-08-26T10:45:15.706Z,95290
2022-08-26T10:46:27.256Z,95287
2022-08-26T10:47:35.079Z,95284
2022-08-26T10:48:42.783Z,95285
2022-08-26T10:49:52.449Z,95280
2022-08-26T10:51:02.185Z,95279
2022-08-26T10:52:12.409Z,95279
2022-08-26T10:53:25.040Z,95277
2022-08-26T10:54:32.281Z,95279
2022-08-26T10:55:40.948Z,95271
2022-08-26T10:56:50.623Z,95269
2022-08-26T10:58:00.308Z,95273
2022-08-26T10:59:12.380Z,95270
2022-08-26T11:00:20.622Z,95271
2022-08-26T11:01:30.302Z,95268
2022-08-26T11:02:40.924Z,95269
2022-08-26T11:03:50.581Z,95268
2022-08-26T11:05:01.220Z,95267
2022-08-26T11:06:12.046Z,95263
2022-08-26T11:07:20.706Z,95260
2022-08-26T11:08:30.410Z,95260
2022-08-26T11:09:40.080Z,95262
2022-08-26T11:10:48.728Z,95259
2022-08-26T11:12:01.908Z,95262
2022-08-26T11:13:10.245Z,95254
2022-08-26T11:14:23.444Z,95261
2022-08-26T11:15:30.470Z,95257
2022-08-26T11:16:42.778Z,95260
2022-08-26T11:17:48.925Z,95257
2022-08-26T11:18:58.677Z,95259
2022-08-26T11:20:09.318Z,95256
2022-08-26T11:21:18.081Z,95251
2022-08-26T11:22:28.751Z,95255
2022-08-26T11:23:37.480Z,95248
2022-08-26T11:24:47.318Z,95251
2022-08-26T11:25:56.048Z,95256
2022-08-26T11:27:05.712Z,95256
2022-08-26T11:28:14.461Z,95252
2022-08-26T11:29:24.190Z,95253
2022-08-26T11:30:33.928Z,95252
2022-08-26T11:31:43.687Z,95248
2022-08-26T11:32:53.409Z,95245
2022-08-26T11:34:02.542Z,95252
2022-08-26T11:35:12.870Z,95251
2022-08-26T11:36:22.553Z,95254
2022-08-26T11:37:32.242Z,95249
2022-08-26T11:38:42.042Z,95251
2022-08-26T11:39:54.915Z,95248
2022-08-26T11:41:03.330Z,95248
2022-08-26T11:42:11.885Z,95251
2022-08-26T11:43:20.597Z,95243
2022-08-26T11:44:29.410Z,95242
2022-08-26T11:45:39.329Z,95244
2022-08-26T11:46:48.923Z,95243
2022-08-26T11:47:57.643Z,95242
2022-08-26T11:49:06.418Z,95246
2022-08-26T11:50:15.127Z,95241
2022-08-26T11:51:24.909Z,95239
2022-08-26T11:52:33.734Z,95241
2022-08-26T11:53:42.432Z,95236
2022-08-26T11:54:52.204Z,95235
2022-08-26T11:56:01.898Z,95233
2022-08-26T11:57:11.890Z,95229
2022-08-26T11:58:20.408Z,95239
2022-08-26T11:59:30.116Z,95235
2022-08-26T12:00:39.832Z,95239
2022-08-26T12:01:49.518Z,95236
2022-08-26T12:02:59.225Z,95232
2022-08-26T12:04:09.424Z,95238
2022-08-26T12:05:19.166Z,95236
2022-08-26T12:06:29.952Z,95237
2022-08-26T12:07:39.680Z,95236
2022-08-26T12:08:49.445Z,95233
2022-08-26T12:10:00.415Z,95230
2022-08-26T12:11:09.162Z,95230
2022-08-26T12:12:18.878Z,95231
2022-08-26T12:13:28.634Z,95226
2022-08-26T12:14:37.309Z,95225
2022-08-26T12:15:47.144Z,95221
2022-08-26T12:16:57.863Z,95220
2022-08-26T12:18:06.562Z,95222
2022-08-26T12:19:16.283Z,95220
2022-08-26T12:20:26.004Z,95217
2022-08-26T12:21:35.724Z,95220
2022-08-26T12:22:48.038Z,95218
2022-08-26T12:23:55.136Z,95217
2022-08-26T12:25:03.897Z,95220
2022-08-26T12:26:13.599Z,95211
2022-08-26T12:27:23.450Z,95214
2022-08-26T12:28:33.159Z,95217
2022-08-26T12:29:40.893Z,95213
2022-08-26T12:30:51.604Z,95212
2022-08-26T12:32:02.415Z,95208
2022-08-26T12:33:13.342Z,95206
2022-08-26T12:34:20.818Z,95202
2022-08-26T12:35:29.648Z,95204
2022-08-26T12:36:38.307Z,95206
2022-08-26T12:37:48.089Z,95206
2022-08-26T12:38:58.377Z,95199
2022-08-26T12:40:06.656Z,95201
2022-08-26T12:41:16.476Z,95197
2022-08-26T12:42:25.186Z,95206
2022-08-26T12:43:33.984Z,95198
2022-08-26T12:44:52.964Z,95194
2022-08-26T12:45:52.480Z,95196
2022-08-26T12:47:02.240Z,95192
2022-08-26T12:48:10.128Z,95190
2022-08-26T12:49:19.629Z,95191
2022-08-26T12:50:29.420Z,95186
2022-08-26T12:51:38.097Z,95184
2022-08-26T12:52:46.791Z,95187
2022-08-26T12:53:56.469Z,95186
2022-08-26T12:55:05.186Z,95181
2022-08-26T12:56:15.098Z,95181
2022-08-26T12:57:23.784Z,95181
2022-08-26T12:58:33.478Z,95184
2022-08-26T12:59:43.205Z,95183
2022-08-26T13:00:51.037Z,95186
2022-08-26T13:02:00.696Z,95179
2022-08-26T13:03:09.519Z,95177
2022-08-26T13:04:19.049Z,95179
2022-08-26T13:05:28.737Z,95172
2022-08-26T13:06:38.414Z,95167
2022-08-26T13:07:47.133Z,95165
2022-08-26T13:08:56.822Z,95163
2022-08-26T13:10:05.499Z,95163
2022-08-26T13:11:13.172Z,95165
2022-08-26T13:12:21.845Z,95163
2022-08-26T13:13:30.569Z,95164
2022-08-26T13:14:41.321Z,95164
2022-08-26T13:15:50.096Z,95164
2022-08-26T13:16:59.762Z,95159
2022-08-26T13:18:09.447Z,95159
2022-08-26T13:19:17.199Z,95155
2022-08-26T13:20:26.946Z,95158
2022-08-26T13:21:37.277Z,95158
2022-08-26T13:22:45.442Z,95155
2022-08-26T13:23:56.172Z,95157
2022-08-26T13:25:04.859Z,95154
2022-08-26T13:26:14.600Z,95150
2022-08-26T13:27:24.322Z,95148
2022-08-26T13:28:33.011Z,95145
2022-08-26T13:29:42.709Z,95147
2022-08-26T13:30:50.551Z,95149
2022-08-26T13:31:59.276Z,95148
2022-08-26T13:33:08.009Z,95134
2022-08-26T13:34:17.632Z,95144
2022-08-26T13:35:27.331Z,95148
2022-08-26T13:36:36.052Z,95144
2022-08-26T13:37:45.731Z,95143
2022-08-26T13:38:55.451Z,95146
2022-08-26T13:40:05.219Z,95147
2022-08-26T13:41:14.869Z,95147
2022-08-26T13:42:25.548Z,95144
2022-08-26T13:43:35.241Z,95146
2022-08-26T13:44:44.928Z,95147
2022-08-26T13:45:53.626Z,95142
2022-08-26T13:47:02.304Z,95143
2022-08-26T13:48:12.062Z,95142
2022-08-26T13:49:20.781Z,95148
2022-08-26T13:50:29.558Z,95138
2022-08-26T13:51:39.256Z,95140
2022-08-26T13:52:47.966Z,95143
2022-08-26T13:53:57.735Z,95137
2022-08-26T13:55:07.414Z,95144
2022-08-26T13:56:17.149Z,95146
2022-08-26T13:57:26.860Z,95142
2022-08-26T13:58:35.549Z,95141
2022-08-26T13:59:44.304Z,95146
2022-08-26T14:00:53.075Z,95139
2022-08-26T14:02:02.720Z,95146
2022-08-26T14:03:13.450Z,95143
2022-08-26T14:04:23.265Z,95144
2022-08-26T14:05:29.897Z,95140
2022-08-26T14:06:39.622Z,95143
2022-08-26T14:07:48.322Z,95139
2022-08-26T14:08:57.054Z,95138
2022-08-26T14:10:05.847Z,95140
2022-08-26T14:11:15.688Z,95151
2022-08-26T14:12:25.415Z,95153
2022-08-26T14:13:34.135Z,95155
2022-08-26T14:14:42.873Z,95141
2022-08-26T14:15:52.678Z,95149
2022-08-26T14:17:00.662Z,95132
2022-08-26T14:18:09.207Z,95131
2022-08-26T14:19:18.954Z,95132
2022-08-26T14:20:28.668Z,95132
2022-08-26T14:21:38.607Z,95126
2022-08-26T14:22:57.512Z,95133
2022-08-26T14:24:00.883Z,95148
2022-08-26T14:25:08.027Z,95144
2022-08-26T14:26:28.009Z,95131
2022-08-26T14:27:27.636Z,95142
2022-08-26T14:28:37.414Z,95145
2022-08-26T14:29:47.197Z,95126
2022-08-26T14:30:56.998Z,95129
2022-08-26T14:32:04.845Z,95140
2022-08-26T14:33:14.668Z,95131
2022-08-26T14:34:24.624Z,95135
2022-08-26T14:35:34.364Z,95121
2022-08-26T14:36:45.138Z,95123
2022-08-26T14:37:54.904Z,95126
2022-08-26T14:39:03.663Z,95125
2022-08-26T14:40:13.367Z,95120
2022-08-26T14:41:22.059Z,95127
2022-08-26T14:42:31.800Z,95138
2022-08-26T14:43:41.516Z,95130
2022-08-26T14:44:49.256Z,95133
2022-08-26T14:45:57.999Z,95125
2022-08-26T14:47:06.715Z,95121
2022-08-26T14:48:16.452Z,95128
2022-08-26T14:49:26.203Z,95116
2022-08-26T14:50:33.906Z,95117
2022-08-26T14:51:43.695Z,95123
2022-08-26T14:52:53.449Z,95134